sensor_id;sensor_type;location;lat;lon;timestamp;P1;durP1;ratioP1;P2;durP2;ratioP2
44810;SDS011;30526;52.184;4.476;2022-09-09T00:00:41;9.23;;;5.13;;
44810;SDS011;30526;52.184;4.476;2022-09-09T00:03:12;11.00;;;5.18;;
44810;SDS011;30526;52.184;4.476;2022-09-09T00:08:11;15.07;;;5.18;;
44810;SDS011;30526;52.184;4.476;2022-09-09T00:10:39;18.77;;;6.38;;
44810;SDS011;30526;52.184;4.476;2022-09-09T00:15:55;11.43;;;5.78;;
44810;SDS011;30526;52.184;4.476;2022-09-09T00:19:15;11.63;;;5.57;;
44810;SDS011;30526;52.184;4.476;2022-09-09T00:21:13;10.10;;;5.45;;
44810;SDS011;30526;52.184;4.476;2022-09-09T00:23:47;11.70;;;6.32;;
44810;SDS011;30526;52.184;4.476;2022-09-09T00:26:25;13.60;;;6.18;;
44810;SDS011;30526;52.184;4.476;2022-09-09T00:29:42;11.75;;;6.40;;
44810;SDS011;30526;52.184;4.476;2022-09-09T00:31:42;8.33;;;4.10;;
44810;SDS011;30526;52.184;4.476;2022-09-09T00:34:09;12.20;;;6.22;;
44810;SDS011;30526;52.184;4.476;2022-09-09T00:36:37;16.48;;;6.57;;
44810;SDS011;30526;52.184;4.476;2022-09-09T00:39:04;15.75;;;7.22;;
44810;SDS011;30526;52.184;4.476;2022-09-09T00:44:08;14.57;;;7.25;;
44810;SDS011;30526;52.184;4.476;2022-09-09T00:46:49;16.00;;;7.80;;
44810;SDS011;30526;52.184;4.476;2022-09-09T00:49:21;13.10;;;7.50;;
44810;SDS011;30526;52.184;4.476;2022-09-09T00:54:38;13.30;;;6.80;;
44810;SDS011;30526;52.184;4.476;2022-09-09T00:57:28;14.07;;;8.45;;
44810;SDS011;30526;52.184;4.476;2022-09-09T01:02:39;18.55;;;9.82;;
44810;SDS011;30526;52.184;4.476;2022-09-09T01:05:12;22.85;;;11.20;;
44810;SDS011;30526;52.184;4.476;2022-09-09T01:07:42;25.15;;;11.93;;
44810;SDS011;30526;52.184;4.476;2022-09-09T01:10:13;23.42;;;12.18;;
44810;SDS011;30526;52.184;4.476;2022-09-09T01:12:43;25.63;;;12.18;;
44810;SDS011;30526;52.184;4.476;2022-09-09T01:17:50;16.48;;;10.27;;
44810;SDS011;30526;52.184;4.476;2022-09-09T01:20:24;19.65;;;10.48;;
44810;SDS011;30526;52.184;4.476;2022-09-09T01:23:11;18.95;;;10.73;;
44810;SDS011;30526;52.184;4.476;2022-09-09T01:28:10;15.25;;;9.52;;
44810;SDS011;30526;52.184;4.476;2022-09-09T01:30:38;22.98;;;9.95;;
44810;SDS011;30526;52.184;4.476;2022-09-09T01:33:04;13.20;;;7.00;;
44810;SDS011;30526;52.184;4.476;2022-09-09T01:37:57;19.40;;;9.48;;
44810;SDS011;30526;52.184;4.476;2022-09-09T01:40:26;19.25;;;9.38;;
44810;SDS011;30526;52.184;4.476;2022-09-09T01:42:52;25.27;;;10.80;;
44810;SDS011;30526;52.184;4.476;2022-09-09T01:45:19;17.50;;;10.23;;
44810;SDS011;30526;52.184;4.476;2022-09-09T01:47:45;16.67;;;9.27;;
44810;SDS011;30526;52.184;4.476;2022-09-09T01:50:12;17.13;;;9.18;;
44810;SDS011;30526;52.184;4.476;2022-09-09T01:52:40;17.55;;;9.10;;
44810;SDS011;30526;52.184;4.476;2022-09-09T01:55:06;17.88;;;9.77;;
44810;SDS011;30526;52.184;4.476;2022-09-09T02:00:11;22.38;;;9.75;;
44810;SDS011;30526;52.184;4.476;2022-09-09T02:02:39;15.38;;;7.85;;
44810;SDS011;30526;52.184;4.476;2022-09-09T02:05:25;17.83;;;9.82;;
44810;SDS011;30526;52.184;4.476;2022-09-09T02:08:00;20.30;;;10.35;;
44810;SDS011;30526;52.184;4.476;2022-09-09T02:10:30;15.88;;;10.38;;
44810;SDS011;30526;52.184;4.476;2022-09-09T02:13:04;16.33;;;10.10;;
44810;SDS011;30526;52.184;4.476;2022-09-09T02:15:34;19.67;;;11.15;;
44810;SDS011;30526;52.184;4.476;2022-09-09T02:18:01;15.10;;;9.75;;
44810;SDS011;30526;52.184;4.476;2022-09-09T02:20:31;23.45;;;10.95;;
44810;SDS011;30526;52.184;4.476;2022-09-09T02:22:58;18.13;;;10.73;;
44810;SDS011;30526;52.184;4.476;2022-09-09T02:25:25;17.75;;;11.38;;
44810;SDS011;30526;52.184;4.476;2022-09-09T02:27:52;25.67;;;11.48;;
44810;SDS011;30526;52.184;4.476;2022-09-09T02:30:18;21.17;;;11.60;;
44810;SDS011;30526;52.184;4.476;2022-09-09T02:32:45;25.95;;;11.65;;
44810;SDS011;30526;52.184;4.476;2022-09-09T02:35:13;17.10;;;10.60;;
44810;SDS011;30526;52.184;4.476;2022-09-09T02:37:40;18.55;;;10.40;;
44810;SDS011;30526;52.184;4.476;2022-09-09T02:40:08;17.38;;;9.82;;
44810;SDS011;30526;52.184;4.476;2022-09-09T02:42:41;20.90;;;10.40;;
44810;SDS011;30526;52.184;4.476;2022-09-09T02:45:08;16.85;;;10.13;;
44810;SDS011;30526;52.184;4.476;2022-09-09T02:47:35;14.85;;;6.85;;
44810;SDS011;30526;52.184;4.476;2022-09-09T02:50:13;16.65;;;8.88;;
44810;SDS011;30526;52.184;4.476;2022-09-09T02:52:51;15.98;;;9.32;;
44810;SDS011;30526;52.184;4.476;2022-09-09T02:55:23;12.82;;;8.48;;
44810;SDS011;30526;52.184;4.476;2022-09-09T02:57:52;14.73;;;8.57;;
44810;SDS011;30526;52.184;4.476;2022-09-09T03:00:26;22.10;;;9.05;;
44810;SDS011;30526;52.184;4.476;2022-09-09T03:02:52;14.82;;;7.78;;
44810;SDS011;30526;52.184;4.476;2022-09-09T03:05:22;15.20;;;8.27;;
44810;SDS011;30526;52.184;4.476;2022-09-09T03:07:48;14.90;;;7.57;;
44810;SDS011;30526;52.184;4.476;2022-09-09T03:10:15;11.55;;;5.55;;
44810;SDS011;30526;52.184;4.476;2022-09-09T03:12:42;11.73;;;7.47;;
44810;SDS011;30526;52.184;4.476;2022-09-09T03:15:08;14.90;;;6.82;;
44810;SDS011;30526;52.184;4.476;2022-09-09T03:17:35;18.67;;;6.88;;
44810;SDS011;30526;52.184;4.476;2022-09-09T03:20:02;10.30;;;6.57;;
44810;SDS011;30526;52.184;4.476;2022-09-09T03:22:28;17.08;;;6.28;;
44810;SDS011;30526;52.184;4.476;2022-09-09T03:24:54;15.93;;;6.53;;
44810;SDS011;30526;52.184;4.476;2022-09-09T03:27:20;17.42;;;6.00;;
44810;SDS011;30526;52.184;4.476;2022-09-09T03:29:46;11.27;;;5.93;;
44810;SDS011;30526;52.184;4.476;2022-09-09T03:32:15;14.18;;;6.03;;
44810;SDS011;30526;52.184;4.476;2022-09-09T03:34:42;10.43;;;6.27;;
44810;SDS011;30526;52.184;4.476;2022-09-09T03:37:08;14.07;;;5.82;;
44810;SDS011;30526;52.184;4.476;2022-09-09T03:39:34;16.15;;;5.38;;
44810;SDS011;30526;52.184;4.476;2022-09-09T03:42:00;13.98;;;5.47;;
44810;SDS011;30526;52.184;4.476;2022-09-09T03:44:30;10.93;;;5.68;;
44810;SDS011;30526;52.184;4.476;2022-09-09T03:46:56;13.10;;;5.38;;
44810;SDS011;30526;52.184;4.476;2022-09-09T03:49:25;10.20;;;4.43;;
44810;SDS011;30526;52.184;4.476;2022-09-09T03:51:52;15.05;;;5.10;;
44810;SDS011;30526;52.184;4.476;2022-09-09T03:54:18;11.43;;;4.63;;
44810;SDS011;30526;52.184;4.476;2022-09-09T03:56:44;13.10;;;4.85;;
44810;SDS011;30526;52.184;4.476;2022-09-09T03:59:10;9.02;;;4.85;;
44810;SDS011;30526;52.184;4.476;2022-09-09T04:01:36;11.20;;;5.22;;
44810;SDS011;30526;52.184;4.476;2022-09-09T04:04:02;11.30;;;4.85;;
44810;SDS011;30526;52.184;4.476;2022-09-09T04:06:28;14.50;;;5.43;;
44810;SDS011;30526;52.184;4.476;2022-09-09T04:08:54;17.33;;;5.05;;
44810;SDS011;30526;52.184;4.476;2022-09-09T04:11:21;9.63;;;4.07;;
44810;SDS011;30526;52.184;4.476;2022-09-09T04:13:47;13.18;;;5.05;;
44810;SDS011;30526;52.184;4.476;2022-09-09T04:16:14;19.00;;;5.70;;
44810;SDS011;30526;52.184;4.476;2022-09-09T04:18:40;13.52;;;5.22;;
44810;SDS011;30526;52.184;4.476;2022-09-09T04:21:06;14.35;;;4.93;;
44810;SDS011;30526;52.184;4.476;2022-09-09T04:23:33;10.47;;;5.10;;
44810;SDS011;30526;52.184;4.476;2022-09-09T04:26:00;12.00;;;5.28;;
44810;SDS011;30526;52.184;4.476;2022-09-09T04:28:27;10.77;;;4.90;;
44810;SDS011;30526;52.184;4.476;2022-09-09T04:30:54;9.55;;;4.85;;
44810;SDS011;30526;52.184;4.476;2022-09-09T04:33:22;12.05;;;5.25;;
44810;SDS011;30526;52.184;4.476;2022-09-09T04:35:51;16.35;;;5.40;;
44810;SDS011;30526;52.184;4.476;2022-09-09T04:38:19;8.60;;;5.10;;
44810;SDS011;30526;52.184;4.476;2022-09-09T04:40:48;15.52;;;5.40;;
44810;SDS011;30526;52.184;4.476;2022-09-09T04:43:14;9.85;;;4.63;;
44810;SDS011;30526;52.184;4.476;2022-09-09T04:45:41;15.02;;;5.18;;
44810;SDS011;30526;52.184;4.476;2022-09-09T04:48:07;13.50;;;4.60;;
44810;SDS011;30526;52.184;4.476;2022-09-09T04:50:34;8.10;;;5.22;;
44810;SDS011;30526;52.184;4.476;2022-09-09T04:53:01;8.93;;;4.95;;
44810;SDS011;30526;52.184;4.476;2022-09-09T04:55:27;9.45;;;4.18;;
44810;SDS011;30526;52.184;4.476;2022-09-09T04:57:53;15.32;;;4.80;;
44810;SDS011;30526;52.184;4.476;2022-09-09T05:00:19;9.02;;;4.25;;
44810;SDS011;30526;52.184;4.476;2022-09-09T05:02:45;14.75;;;5.13;;
44810;SDS011;30526;52.184;4.476;2022-09-09T05:05:12;15.00;;;5.13;;
44810;SDS011;30526;52.184;4.476;2022-09-09T05:07:38;10.52;;;4.50;;
44810;SDS011;30526;52.184;4.476;2022-09-09T05:10:04;11.10;;;4.78;;
44810;SDS011;30526;52.184;4.476;2022-09-09T05:12:30;10.40;;;4.80;;
44810;SDS011;30526;52.184;4.476;2022-09-09T05:14:56;10.98;;;5.15;;
44810;SDS011;30526;52.184;4.476;2022-09-09T05:17:23;12.88;;;4.80;;
44810;SDS011;30526;52.184;4.476;2022-09-09T05:19:49;12.00;;;4.22;;
44810;SDS011;30526;52.184;4.476;2022-09-09T05:22:21;11.70;;;4.00;;
44810;SDS011;30526;52.184;4.476;2022-09-09T05:24:48;8.85;;;4.50;;
44810;SDS011;30526;52.184;4.476;2022-09-09T05:27:16;12.52;;;3.78;;
44810;SDS011;30526;52.184;4.476;2022-09-09T05:29:43;11.18;;;3.17;;
44810;SDS011;30526;52.184;4.476;2022-09-09T05:32:09;7.53;;;2.83;;
44810;SDS011;30526;52.184;4.476;2022-09-09T05:34:35;12.60;;;3.83;;
44810;SDS011;30526;52.184;4.476;2022-09-09T05:37:02;11.15;;;3.28;;
44810;SDS011;30526;52.184;4.476;2022-09-09T05:39:29;7.85;;;3.15;;
44810;SDS011;30526;52.184;4.476;2022-09-09T05:41:55;14.75;;;3.50;;
44810;SDS011;30526;52.184;4.476;2022-09-09T05:44:21;9.98;;;3.55;;
44810;SDS011;30526;52.184;4.476;2022-09-09T05:46:52;10.18;;;4.28;;
44810;SDS011;30526;52.184;4.476;2022-09-09T05:49:19;8.25;;;3.08;;
44810;SDS011;30526;52.184;4.476;2022-09-09T05:51:46;10.98;;;2.55;;
44810;SDS011;30526;52.184;4.476;2022-09-09T05:54:13;9.47;;;3.57;;
44810;SDS011;30526;52.184;4.476;2022-09-09T05:59:08;8.95;;;3.28;;
44810;SDS011;30526;52.184;4.476;2022-09-09T06:01:35;8.35;;;3.90;;
44810;SDS011;30526;52.184;4.476;2022-09-09T06:04:05;11.80;;;3.45;;
44810;SDS011;30526;52.184;4.476;2022-09-09T06:06:32;10.05;;;3.00;;
44810;SDS011;30526;52.184;4.476;2022-09-09T06:09:02;9.80;;;3.25;;
44810;SDS011;30526;52.184;4.476;2022-09-09T06:11:29;8.75;;;3.13;;
44810;SDS011;30526;52.184;4.476;2022-09-09T06:13:59;11.55;;;3.03;;
44810;SDS011;30526;52.184;4.476;2022-09-09T06:16:26;9.17;;;3.53;;
44810;SDS011;30526;52.184;4.476;2022-09-09T06:18:52;11.32;;;2.63;;
44810;SDS011;30526;52.184;4.476;2022-09-09T06:21:23;4.97;;;2.10;;
44810;SDS011;30526;52.184;4.476;2022-09-09T06:23:50;10.82;;;3.25;;
44810;SDS011;30526;52.184;4.476;2022-09-09T06:26:29;9.68;;;2.47;;
44810;SDS011;30526;52.184;4.476;2022-09-09T06:28:55;7.07;;;2.33;;
44810;SDS011;30526;52.184;4.476;2022-09-09T06:31:23;9.13;;;2.20;;
44810;SDS011;30526;52.184;4.476;2022-09-09T06:33:50;12.05;;;2.75;;
44810;SDS011;30526;52.184;4.476;2022-09-09T06:36:17;8.48;;;3.13;;
44810;SDS011;30526;52.184;4.476;2022-09-09T06:38:44;8.52;;;1.95;;
44810;SDS011;30526;52.184;4.476;2022-09-09T06:41:11;4.72;;;1.67;;
44810;SDS011;30526;52.184;4.476;2022-09-09T06:43:37;14.68;;;3.40;;
44810;SDS011;30526;52.184;4.476;2022-09-09T06:46:05;8.20;;;3.00;;
44810;SDS011;30526;52.184;4.476;2022-09-09T06:51:04;11.47;;;3.57;;
44810;SDS011;30526;52.184;4.476;2022-09-09T06:53:31;10.55;;;3.75;;
44810;SDS011;30526;52.184;4.476;2022-09-09T06:56:01;12.52;;;3.67;;
44810;SDS011;30526;52.184;4.476;2022-09-09T06:58:28;9.52;;;3.75;;
44810;SDS011;30526;52.184;4.476;2022-09-09T07:01:03;13.18;;;4.22;;
44810;SDS011;30526;52.184;4.476;2022-09-09T07:03:29;10.13;;;3.92;;
44810;SDS011;30526;52.184;4.476;2022-09-09T07:05:56;14.85;;;4.07;;
44810;SDS011;30526;52.184;4.476;2022-09-09T07:08:22;12.23;;;4.63;;
44810;SDS011;30526;52.184;4.476;2022-09-09T07:10:49;11.07;;;3.90;;
44810;SDS011;30526;52.184;4.476;2022-09-09T07:13:16;8.30;;;3.28;;
44810;SDS011;30526;52.184;4.476;2022-09-09T07:15:49;11.13;;;4.22;;
44810;SDS011;30526;52.184;4.476;2022-09-09T07:18:15;8.35;;;3.60;;
44810;SDS011;30526;52.184;4.476;2022-09-09T07:20:41;9.60;;;4.30;;
44810;SDS011;30526;52.184;4.476;2022-09-09T07:23:07;9.80;;;3.88;;
44810;SDS011;30526;52.184;4.476;2022-09-09T07:25:33;15.15;;;4.40;;
44810;SDS011;30526;52.184;4.476;2022-09-09T07:27:59;8.70;;;3.45;;
44810;SDS011;30526;52.184;4.476;2022-09-09T07:30:25;10.90;;;3.80;;
44810;SDS011;30526;52.184;4.476;2022-09-09T07:32:51;9.25;;;3.90;;
44810;SDS011;30526;52.184;4.476;2022-09-09T07:35:17;9.70;;;3.60;;
44810;SDS011;30526;52.184;4.476;2022-09-09T07:37:43;10.75;;;3.20;;
44810;SDS011;30526;52.184;4.476;2022-09-09T07:40:10;9.15;;;3.53;;
44810;SDS011;30526;52.184;4.476;2022-09-09T07:42:36;12.68;;;4.10;;
44810;SDS011;30526;52.184;4.476;2022-09-09T07:45:03;18.55;;;3.80;;
44810;SDS011;30526;52.184;4.476;2022-09-09T07:47:29;11.30;;;3.33;;
44810;SDS011;30526;52.184;4.476;2022-09-09T07:49:55;9.95;;;3.40;;
44810;SDS011;30526;52.184;4.476;2022-09-09T07:52:21;12.15;;;3.70;;
44810;SDS011;30526;52.184;4.476;2022-09-09T07:54:47;11.82;;;3.90;;
44810;SDS011;30526;52.184;4.476;2022-09-09T07:57:13;9.25;;;3.60;;
44810;SDS011;30526;52.184;4.476;2022-09-09T07:59:40;11.23;;;2.78;;
44810;SDS011;30526;52.184;4.476;2022-09-09T08:02:06;14.32;;;4.00;;
44810;SDS011;30526;52.184;4.476;2022-09-09T08:04:32;9.82;;;4.53;;
44810;SDS011;30526;52.184;4.476;2022-09-09T08:06:59;10.93;;;3.88;;
44810;SDS011;30526;52.184;4.476;2022-09-09T08:09:26;16.60;;;4.38;;
44810;SDS011;30526;52.184;4.476;2022-09-09T08:11:53;11.32;;;4.30;;
44810;SDS011;30526;52.184;4.476;2022-09-09T08:14:21;15.95;;;4.80;;
44810;SDS011;30526;52.184;4.476;2022-09-09T08:16:48;12.45;;;3.40;;
44810;SDS011;30526;52.184;4.476;2022-09-09T08:19:14;10.60;;;3.80;;
44810;SDS011;30526;52.184;4.476;2022-09-09T08:21:40;13.13;;;3.50;;
44810;SDS011;30526;52.184;4.476;2022-09-09T08:24:07;8.00;;;3.53;;
44810;SDS011;30526;52.184;4.476;2022-09-09T08:26:39;12.15;;;3.50;;
44810;SDS011;30526;52.184;4.476;2022-09-09T08:29:07;8.90;;;3.40;;
44810;SDS011;30526;52.184;4.476;2022-09-09T08:31:34;10.93;;;3.60;;
44810;SDS011;30526;52.184;4.476;2022-09-09T08:36:28;12.85;;;3.25;;
44810;SDS011;30526;52.184;4.476;2022-09-09T08:38:56;11.15;;;3.17;;
44810;SDS011;30526;52.184;4.476;2022-09-09T08:43:52;9.73;;;3.05;;
44810;SDS011;30526;52.184;4.476;2022-09-09T08:46:25;10.38;;;3.22;;
44810;SDS011;30526;52.184;4.476;2022-09-09T08:51:20;5.38;;;2.72;;
44810;SDS011;30526;52.184;4.476;2022-09-09T08:53:48;10.88;;;2.83;;
44810;SDS011;30526;52.184;4.476;2022-09-09T08:56:18;8.90;;;2.90;;
44810;SDS011;30526;52.184;4.476;2022-09-09T08:58:49;8.13;;;3.03;;
44810;SDS011;30526;52.184;4.476;2022-09-09T09:01:31;8.73;;;3.17;;
44810;SDS011;30526;52.184;4.476;2022-09-09T09:04:03;12.15;;;3.03;;
44810;SDS011;30526;52.184;4.476;2022-09-09T09:09:02;9.50;;;3.00;;
44810;SDS011;30526;52.184;4.476;2022-09-09T09:11:38;11.38;;;2.78;;
44810;SDS011;30526;52.184;4.476;2022-09-09T09:14:09;7.68;;;2.85;;
44810;SDS011;30526;52.184;4.476;2022-09-09T09:19:04;13.13;;;3.10;;
44810;SDS011;30526;52.184;4.476;2022-09-09T09:21:39;13.15;;;3.08;;
44810;SDS011;30526;52.184;4.476;2022-09-09T09:24:53;8.10;;;3.37;;
44810;SDS011;30526;52.184;4.476;2022-09-09T09:26:53;8.25;;;2.85;;
44810;SDS011;30526;52.184;4.476;2022-09-09T09:29:19;12.77;;;3.55;;
44810;SDS011;30526;52.184;4.476;2022-09-09T09:31:53;7.60;;;3.25;;
44810;SDS011;30526;52.184;4.476;2022-09-09T09:34:21;10.88;;;3.00;;
44810;SDS011;30526;52.184;4.476;2022-09-09T09:36:55;8.07;;;3.33;;
44810;SDS011;30526;52.184;4.476;2022-09-09T09:39:23;11.75;;;3.80;;
44810;SDS011;30526;52.184;4.476;2022-09-09T09:41:49;7.82;;;3.58;;
44810;SDS011;30526;52.184;4.476;2022-09-09T09:44:28;10.68;;;3.45;;
44810;SDS011;30526;52.184;4.476;2022-09-09T09:50:15;8.23;;;3.40;;
44810;SDS011;30526;52.184;4.476;2022-09-09T09:52:31;9.32;;;3.17;;
44810;SDS011;30526;52.184;4.476;2022-09-09T09:54:59;10.65;;;3.22;;
44810;SDS011;30526;52.184;4.476;2022-09-09T09:57:31;9.65;;;3.72;;
44810;SDS011;30526;52.184;4.476;2022-09-09T10:00:03;13.55;;;3.28;;
44810;SDS011;30526;52.184;4.476;2022-09-09T10:02:36;14.60;;;3.20;;
44810;SDS011;30526;52.184;4.476;2022-09-09T10:05:04;12.68;;;3.72;;
44810;SDS011;30526;52.184;4.476;2022-09-09T10:07:31;12.57;;;3.33;;
44810;SDS011;30526;52.184;4.476;2022-09-09T10:09:58;9.30;;;3.40;;
44810;SDS011;30526;52.184;4.476;2022-09-09T10:19:59;7.43;;;3.15;;
44810;SDS011;30526;52.184;4.476;2022-09-09T10:22:33;9.10;;;2.97;;
44810;SDS011;30526;52.184;4.476;2022-09-09T10:32:55;16.13;;;4.57;;
44810;SDS011;30526;52.184;4.476;2022-09-09T10:38:12;15.65;;;3.83;;
44810;SDS011;30526;52.184;4.476;2022-09-09T10:40:43;8.57;;;3.60;;
44810;SDS011;30526;52.184;4.476;2022-09-09T10:45:57;11.65;;;3.45;;
44810;SDS011;30526;52.184;4.476;2022-09-09T10:48:34;9.52;;;3.90;;
44810;SDS011;30526;52.184;4.476;2022-09-09T10:53:35;9.65;;;4.00;;
44810;SDS011;30526;52.184;4.476;2022-09-09T10:56:10;9.75;;;3.75;;
44810;SDS011;30526;52.184;4.476;2022-09-09T10:58:44;11.10;;;3.10;;
44810;SDS011;30526;52.184;4.476;2022-09-09T11:01:14;7.00;;;3.45;;
44810;SDS011;30526;52.184;4.476;2022-09-09T11:03:41;10.27;;;3.15;;
44810;SDS011;30526;52.184;4.476;2022-09-09T11:06:16;6.38;;;2.45;;
44810;SDS011;30526;52.184;4.476;2022-09-09T11:08:43;8.23;;;2.45;;
44810;SDS011;30526;52.184;4.476;2022-09-09T11:11:11;7.22;;;2.88;;
44810;SDS011;30526;52.184;4.476;2022-09-09T11:13:41;11.10;;;2.90;;
44810;SDS011;30526;52.184;4.476;2022-09-09T11:17:10;5.47;;;2.58;;
44810;SDS011;30526;52.184;4.476;2022-09-09T11:19:15;6.40;;;2.67;;
44810;SDS011;30526;52.184;4.476;2022-09-09T11:21:46;6.85;;;2.25;;
44810;SDS011;30526;52.184;4.476;2022-09-09T11:24:29;8.00;;;2.53;;
44810;SDS011;30526;52.184;4.476;2022-09-09T11:26:58;6.57;;;2.65;;
44810;SDS011;30526;52.184;4.476;2022-09-09T11:29:45;7.28;;;1.98;;
44810;SDS011;30526;52.184;4.476;2022-09-09T11:32:30;6.05;;;2.17;;
44810;SDS011;30526;52.184;4.476;2022-09-09T11:40:33;4.90;;;2.20;;
44810;SDS011;30526;52.184;4.476;2022-09-09T11:43:00;5.82;;;2.05;;
44810;SDS011;30526;52.184;4.476;2022-09-09T11:45:28;5.97;;;1.95;;
44810;SDS011;30526;52.184;4.476;2022-09-09T11:47:56;8.70;;;1.75;;
44810;SDS011;30526;52.184;4.476;2022-09-09T11:52:49;6.57;;;2.30;;
44810;SDS011;30526;52.184;4.476;2022-09-09T12:02:58;12.57;;;3.25;;
44810;SDS011;30526;52.184;4.476;2022-09-09T12:05:24;8.93;;;3.05;;
44810;SDS011;30526;52.184;4.476;2022-09-09T12:12:54;8.93;;;3.30;;
44810;SDS011;30526;52.184;4.476;2022-09-09T12:17:47;8.43;;;3.60;;
44810;SDS011;30526;52.184;4.476;2022-09-09T12:22:45;7.30;;;2.45;;
44810;SDS011;30526;52.184;4.476;2022-09-09T12:27:44;4.07;;;2.30;;
44810;SDS011;30526;52.184;4.476;2022-09-09T12:30:16;5.85;;;2.22;;
44810;SDS011;30526;52.184;4.476;2022-09-09T12:32:42;6.93;;;2.10;;
44810;SDS011;30526;52.184;4.476;2022-09-09T12:35:13;6.72;;;2.55;;
44810;SDS011;30526;52.184;4.476;2022-09-09T12:40:28;5.32;;;2.30;;
44810;SDS011;30526;52.184;4.476;2022-09-09T12:42:53;4.75;;;1.83;;
44810;SDS011;30526;52.184;4.476;2022-09-09T12:45:24;4.97;;;2.53;;
44810;SDS011;30526;52.184;4.476;2022-09-09T12:47:55;5.72;;;2.10;;
44810;SDS011;30526;52.184;4.476;2022-09-09T12:50:22;3.97;;;2.03;;
44810;SDS011;30526;52.184;4.476;2022-09-09T12:52:51;10.77;;;2.53;;
44810;SDS011;30526;52.184;4.476;2022-09-09T12:55:19;5.68;;;2.40;;
44810;SDS011;30526;52.184;4.476;2022-09-09T12:57:46;7.68;;;2.28;;
44810;SDS011;30526;52.184;4.476;2022-09-09T13:00:16;6.53;;;2.78;;
44810;SDS011;30526;52.184;4.476;2022-09-09T13:02:50;7.10;;;2.83;;
44810;SDS011;30526;52.184;4.476;2022-09-09T13:05:21;6.15;;;2.40;;
44810;SDS011;30526;52.184;4.476;2022-09-09T13:07:47;5.55;;;1.80;;
44810;SDS011;30526;52.184;4.476;2022-09-09T13:10:15;3.88;;;1.83;;
44810;SDS011;30526;52.184;4.476;2022-09-09T13:12:41;4.75;;;2.05;;
44810;SDS011;30526;52.184;4.476;2022-09-09T13:15:14;5.43;;;2.20;;
44810;SDS011;30526;52.184;4.476;2022-09-09T13:17:48;7.03;;;2.60;;
44810;SDS011;30526;52.184;4.476;2022-09-09T13:20:18;4.28;;;1.70;;
44810;SDS011;30526;52.184;4.476;2022-09-09T13:22:44;3.63;;;2.30;;
44810;SDS011;30526;52.184;4.476;2022-09-09T13:27:40;4.30;;;1.73;;
44810;SDS011;30526;52.184;4.476;2022-09-09T13:30:20;5.47;;;1.45;;
44810;SDS011;30526;52.184;4.476;2022-09-09T13:33:00;4.75;;;1.60;;
44810;SDS011;30526;52.184;4.476;2022-09-09T13:37:53;3.97;;;1.63;;
44810;SDS011;30526;52.184;4.476;2022-09-09T13:40:20;3.15;;;1.65;;
44810;SDS011;30526;52.184;4.476;2022-09-09T13:45:19;2.60;;;1.52;;
44810;SDS011;30526;52.184;4.476;2022-09-09T13:47:45;5.10;;;1.55;;
44810;SDS011;30526;52.184;4.476;2022-09-09T13:50:26;5.57;;;1.80;;
44810;SDS011;30526;52.184;4.476;2022-09-09T13:52:56;3.72;;;1.70;;
44810;SDS011;30526;52.184;4.476;2022-09-09T13:55:26;2.15;;;1.60;;
44810;SDS011;30526;52.184;4.476;2022-09-09T13:57:54;5.03;;;1.70;;
44810;SDS011;30526;52.184;4.476;2022-09-09T14:00:20;3.25;;;1.75;;
44810;SDS011;30526;52.184;4.476;2022-09-09T14:02:47;4.33;;;1.93;;
44810;SDS011;30526;52.184;4.476;2022-09-09T14:05:13;3.08;;;1.50;;
44810;SDS011;30526;52.184;4.476;2022-09-09T14:07:40;3.70;;;1.33;;
44810;SDS011;30526;52.184;4.476;2022-09-09T14:10:07;7.50;;;1.40;;
44810;SDS011;30526;52.184;4.476;2022-09-09T14:12:33;7.43;;;1.25;;
44810;SDS011;30526;52.184;4.476;2022-09-09T14:17:26;2.47;;;0.93;;
44810;SDS011;30526;52.184;4.476;2022-09-09T14:19:56;5.22;;;1.25;;
44810;SDS011;30526;52.184;4.476;2022-09-09T14:22:22;2.85;;;0.82;;
44810;SDS011;30526;52.184;4.476;2022-09-09T14:24:48;6.43;;;1.50;;
44810;SDS011;30526;52.184;4.476;2022-09-09T14:27:15;4.43;;;1.20;;
44810;SDS011;30526;52.184;4.476;2022-09-09T14:32:11;3.95;;;1.27;;
44810;SDS011;30526;52.184;4.476;2022-09-09T14:34:38;7.10;;;1.53;;
44810;SDS011;30526;52.184;4.476;2022-09-09T14:37:04;8.60;;;1.48;;
44810;SDS011;30526;52.184;4.476;2022-09-09T14:39:30;10.13;;;1.70;;
44810;SDS011;30526;52.184;4.476;2022-09-09T14:41:56;34.10;;;2.40;;
44810;SDS011;30526;52.184;4.476;2022-09-09T14:44:22;15.77;;;2.38;;
44810;SDS011;30526;52.184;4.476;2022-09-09T14:46:48;8.45;;;1.60;;
44810;SDS011;30526;52.184;4.476;2022-09-09T14:49:18;9.52;;;1.65;;
44810;SDS011;30526;52.184;4.476;2022-09-09T14:51:44;8.35;;;2.00;;
44810;SDS011;30526;52.184;4.476;2022-09-09T14:54:10;7.68;;;2.00;;
44810;SDS011;30526;52.184;4.476;2022-09-09T14:56:36;7.20;;;1.67;;
44810;SDS011;30526;52.184;4.476;2022-09-09T14:59:02;15.18;;;1.83;;
44810;SDS011;30526;52.184;4.476;2022-09-09T15:01:29;77.75;;;4.13;;
44810;SDS011;30526;52.184;4.476;2022-09-09T15:03:56;42.55;;;3.10;;
44810;SDS011;30526;52.184;4.476;2022-09-09T15:06:26;32.17;;;2.90;;
44810;SDS011;30526;52.184;4.476;2022-09-09T15:08:54;6.65;;;1.42;;
44810;SDS011;30526;52.184;4.476;2022-09-09T15:11:22;6.47;;;1.42;;
44810;SDS011;30526;52.184;4.476;2022-09-09T15:13:50;5.07;;;1.57;;
44810;SDS011;30526;52.184;4.476;2022-09-09T15:16:18;18.48;;;2.28;;
44810;SDS011;30526;52.184;4.476;2022-09-09T15:18:44;6.45;;;1.67;;
44810;SDS011;30526;52.184;4.476;2022-09-09T15:21:15;13.03;;;2.27;;
44810;SDS011;30526;52.184;4.476;2022-09-09T15:23:41;15.23;;;2.55;;
44810;SDS011;30526;52.184;4.476;2022-09-09T15:26:08;17.87;;;2.80;;
44810;SDS011;30526;52.184;4.476;2022-09-09T15:28:35;18.25;;;2.65;;
44810;SDS011;30526;52.184;4.476;2022-09-09T15:33:28;17.73;;;2.60;;
44810;SDS011;30526;52.184;4.476;2022-09-09T15:35:53;16.17;;;2.65;;
44810;SDS011;30526;52.184;4.476;2022-09-09T15:38:20;20.00;;;3.33;;
44810;SDS011;30526;52.184;4.476;2022-09-09T15:40:52;20.25;;;2.70;;
44810;SDS011;30526;52.184;4.476;2022-09-09T15:43:19;12.85;;;2.70;;
44810;SDS011;30526;52.184;4.476;2022-09-09T15:45:45;12.07;;;2.85;;
44810;SDS011;30526;52.184;4.476;2022-09-09T15:48:11;10.02;;;2.65;;
44810;SDS011;30526;52.184;4.476;2022-09-09T15:50:37;15.20;;;2.45;;
44810;SDS011;30526;52.184;4.476;2022-09-09T15:53:03;14.75;;;2.95;;
44810;SDS011;30526;52.184;4.476;2022-09-09T15:55:31;11.85;;;2.67;;
44810;SDS011;30526;52.184;4.476;2022-09-09T15:57:56;8.63;;;2.10;;
44810;SDS011;30526;52.184;4.476;2022-09-09T16:00:22;12.07;;;2.00;;
44810;SDS011;30526;52.184;4.476;2022-09-09T16:02:49;9.13;;;1.77;;
44810;SDS011;30526;52.184;4.476;2022-09-09T16:05:15;12.43;;;2.42;;
44810;SDS011;30526;52.184;4.476;2022-09-09T16:07:41;7.53;;;1.90;;
44810;SDS011;30526;52.184;4.476;2022-09-09T16:10:09;8.40;;;1.90;;
44810;SDS011;30526;52.184;4.476;2022-09-09T16:12:38;14.27;;;2.60;;
44810;SDS011;30526;52.184;4.476;2022-09-09T16:15:04;6.57;;;2.10;;
44810;SDS011;30526;52.184;4.476;2022-09-09T16:17:32;8.48;;;1.52;;
44810;SDS011;30526;52.184;4.476;2022-09-09T16:20:02;7.38;;;2.15;;
44810;SDS011;30526;52.184;4.476;2022-09-09T16:22:31;3.50;;;1.75;;
44810;SDS011;30526;52.184;4.476;2022-09-09T16:24:57;5.15;;;1.70;;
44810;SDS011;30526;52.184;4.476;2022-09-09T16:27:23;6.93;;;2.00;;
44810;SDS011;30526;52.184;4.476;2022-09-09T16:29:49;10.85;;;2.17;;
44810;SDS011;30526;52.184;4.476;2022-09-09T16:32:16;10.20;;;2.58;;
44810;SDS011;30526;52.184;4.476;2022-09-09T16:34:42;48.42;;;5.43;;
44810;SDS011;30526;52.184;4.476;2022-09-09T16:37:08;15.27;;;4.18;;
44810;SDS011;30526;52.184;4.476;2022-09-09T16:39:34;9.07;;;3.13;;